Thursday, February 22, 2018, 12:10 PM EST
Back to Local

KMDT, Harrisburg International Airport

Location: Middletown, PA, United States Lat: 40.2
Local Time: 12:10 PM EST (17:10 GMT) Lon: -76.767
Time Zone: US/Eastern Elev: 308 ft

Show me the last for .
Show Coded

Time T Td Feel RH Dir Speed Gust Alt SLP Vis Weather Sky Remarks
2018-02-22 11:47 43 39 41 85 60° 3 - 30.53 - 10 SCT013 OVC022 1-hr Precip Total: Trace
2018-02-22 11:18 43 39 40 85 Variable 5 - 30.54 - 5 BR BKN010 OVC015 1-hr Precip Total: Trace
2018-02-22 11:01 42 40 37 91 80° 8 - 30.53 - 2 -RA BR OVC013 1-hr Precip Total: Trace
2018-02-22 10:56 43 40 39 88 80° 7 - 30.53 30.54 1 -RA BR FEW007 OVC015 1-hr Precip Total: 0.04"
2018-02-22 10:51 43 39 39 86 70° 7 - 30.54 - 1 -RA BR OVC016 1-hr Precip Total: 0.03"
2018-02-22 10:44 42 39 38 88 70° 7 - 30.54 - 1 -RA BR FEW009 OVC014 1-hr Precip Total: 0.03"
2018-02-22 10:36 42 39 39 88 60° 5 - 30.54 - 1 -RA BR BKN016 BKN020 OVC027 1-hr Precip Total: 0.03"
2018-02-22 10:21 43 38 40 82 Variable 5 - 30.55 - 2 -RA SCT018 OVC029 1-hr Precip Total: 0.01"
2018-02-22 09:56 44 37 41 76 Variable 6 - 30.54 30.55 10 OVC033 1-hr Precip Total: 0.01"
6-hr Precip Total (10am): 0.01"
2018-02-22 08:56 44 36 42 72 Variable 5 - 30.55 30.55 10 OVC034 1-hr Precip Total: Trace
2018-02-22 07:56 44 36 42 72 40° 5 - 30.52 30.53 10 -RA OVC044 1-hr Precip Total: Trace
2018-02-22 06:56 45 36 43 70 10° 5 - 30.52 30.53 10 -RA OVC043 1-hr Precip Total: Trace
6-hr Precip Total (7am): 0.01"
24-hr Precip Total (7am): 0.03"
6-hr Min Temp (7am): 45.0°F
6-hr Max Temp (7am): 53.1°F
2018-02-22 05:56 46 36 44 67 360° 5 - 30.52 30.53 10 OVC040 1-hr Precip Total: Trace
2018-02-22 04:56 46 34 45 62 350° 3 - 30.50 30.50 10 -RA OVC039 Pressure rising rapidly
1-hr Precip Total: Trace
2018-02-22 03:56 48 32 47 53 50° 3 - 30.49 30.49 10 OVC038 6-hr Precip Total (4am): 0.01"
2018-02-22 02:56 48 36 46 62 40° 5 - 30.49 30.49 10 BKN037 OVC060 None
2018-02-22 01:56 49 40 46 70 360° 7 - 30.48 30.48 10 FEW047 BKN060 OVC100 1-hr Precip Total: 0.01"
2018-02-22 00:56 53 43 - 68 360° 7 - 30.48 30.47 10 -RA OVC041 1-hr Precip Total: Trace
6-hr Precip Total (1am): 0.02"
6-hr Min Temp (1am): 53.1°F
6-hr Max Temp (1am): 70.0°F
2018-02-21 23:56 54 47 - 77 360° 6 - 30.45 30.45 10 BKN045 OVC075 1-hr Precip Total: Trace
24-hr Min Temp (12am): 43.0°F
24-hr Max Temp (12am): 79.0°F
2018-02-21 22:56 56 49 - 77 30° 7 - 30.43 30.42 6 -RA BKN047 OVC060 1-hr Precip Total: 0.02"
2018-02-21 21:56 60 50 - 69 310° 7 - 30.39 30.39 10 BKN055 OVC090 1-hr Precip Total: Trace
6-hr Precip Total (10pm): 0.00"
2018-02-21 20:56 66 52 - 60 360° 12 - 30.35 30.35 10 -RA BKN060 OVC100 1-hr Precip Total: Trace
2018-02-21 19:56 69 54 - 58 360° 9 - 30.32 30.32 10 SCT048 OVC085 None
2018-02-21 18:56 64 53 - 67 310° 12 - 30.30 30.30 10 BKN049 BKN090 6-hr Min Temp (7pm): 63.0°F
6-hr Max Temp (7pm): 79.0°F
2018-02-21 17:56 70 61 - 73 250° 12 - 30.25 30.26 10 BKN060 BKN090 None
2018-02-21 16:56 75 57 77 53 240° 5 - 30.21 30.21 10 FEW047 BKN070 BKN110 None
2018-02-21 15:56 79 58 80 48 Variable 5 17 30.20 30.20 10 SCT075 None
2018-02-21 14:56 76 56 78 50 200° 14 23 30.20 30.19 10 SCT075 None
2018-02-21 13:56 77 57 79 50 230° 12 18 30.20 30.20 10 FEW050 None
2018-02-21 12:56 75 57 77 53 180° 13 23 30.22 30.22 10 FEW080 SCT200 6-hr Min Temp (1pm): 43.0°F
6-hr Max Temp (1pm): 75.0°F

Support USWX by starting your Amazon purchase here.